ADDS METAR Data INFO
IDs: Format: Raw Decoded Include TAF

Data at: 0301 UTC 17 Jan 2018

KF70 170255Z AUTO 00000KT 10SM CLR 15/08 A3014 RMK AO1
KF70 170235Z AUTO 00000KT 10SM CLR 16/09 A3013 RMK AO1
KF70 170215Z AUTO 00000KT 10SM CLR 16/09 A3013 RMK AO1
KF70 170155Z AUTO 00000KT 10SM CLR 17/08 A3013 RMK AO1
KF70 170135Z AUTO 00000KT 10SM CLR 18/08 A3013 RMK AO1
KF70 170115Z AUTO 00000KT 10SM CLR 18/08 A3011 RMK AO1
KF70 170055Z AUTO 18003KT 10SM CLR 18/08 A3011 RMK AO1
KF70 170035Z AUTO 18003KT 10SM CLR 19/07 A3011 RMK AO1
KF70 170015Z AUTO 00000KT 10SM CLR 20/07 A3011 RMK AO1
KF70 162355Z AUTO 21003KT 10SM CLR 20/06 A3012 RMK AO1
KF70 162335Z AUTO 22004KT 10SM CLR 21/05 A3011 RMK AO1
KF70 162315Z AUTO 18004KT 10SM CLR 21/04 A3011 RMK AO1
KF70 162255Z AUTO 20005KT 10SM CLR 22/03 A3011 RMK AO1
KF70 162235Z AUTO 17007KT 10SM CLR 22/03 A3011 RMK AO1
KF70 162215Z AUTO 00000KT 10SM CLR 22/02 A3011 RMK AO1
KF70 162155Z AUTO 16003KT 10SM CLR 22/03 A3011 RMK AO1
KF70 162135Z AUTO 00000KT 10SM CLR 22/01 A3011 RMK AO1
KF70 162115Z AUTO 00000KT 10SM CLR 22/01 A3011 RMK AO1
KF70 162055Z AUTO 20005KT 10SM CLR 22/00 A3013 RMK AO1
KF70 162035Z AUTO 20003KT 10SM CLR 21/02 A3014 RMK AO1
KF70 162015Z AUTO 00000KT 10SM CLR 20/02 A3013 RMK AO1
KF70 161955Z AUTO 00000KT 10SM CLR 20/04 A3014 RMK AO1
KF70 161935Z AUTO 00000KT 10SM CLR 19/06 A3015 RMK AO1
KF70 161915Z AUTO 00000KT 10SM CLR 19/05 A3016 RMK AO1
KF70 161855Z AUTO 00000KT 10SM CLR 17/06 A3017 RMK AO1
KF70 161835Z AUTO 00000KT 10SM CLR 15/06 A3017 RMK AO1
KF70 161815Z AUTO 25003KT 10SM CLR 15/05 A3017 RMK AO1
KF70 161755Z AUTO 00000KT 10SM CLR 15/05 A3016 RMK AO1
KF70 161735Z AUTO 00000KT 10SM CLR 14/04 A3017 RMK AO1
KF70 161715Z AUTO 00000KT 10SM CLR 13/05 A3017 RMK AO1
KF70 161655Z AUTO 00000KT 10SM CLR 12/05 A3017 RMK AO1
KF70 161635Z AUTO 00000KT 10SM CLR 11/06 A3018 RMK AO1
KF70 161615Z AUTO 00000KT 10SM CLR 10/06 A3017 RMK AO1
KF70 161555Z AUTO 36003KT 10SM CLR 09/05 A3017 RMK AO1
KF70 161535Z AUTO 00000KT 10SM CLR 08/05 A3016 RMK AO1
KF70 161515Z AUTO 00000KT 10SM CLR 08/05 A3015 RMK AO1
KF70 161455Z AUTO 01003KT 10SM CLR 08/05 A3015 RMK AO1
KF70 161435Z AUTO 04004KT 10SM CLR 08/04 A3014 RMK AO1
KF70 161415Z AUTO 00000KT 10SM CLR 08/05 A3013 RMK AO1
KF70 161355Z AUTO 04003KT 10SM CLR 08/05 A3013 RMK AO1
KF70 161335Z AUTO 00000KT 10SM CLR 08/05 A3013 RMK AO1
KF70 161315Z AUTO 00000KT 10SM CLR 09/05 A3013 RMK AO1
KF70 161255Z AUTO 03003KT 10SM CLR 09/05 A3013 RMK AO1
KF70 161235Z AUTO 02004KT 10SM CLR 09/05 A3013 RMK AO1
KF70 161215Z AUTO 04003KT 10SM CLR 09/05 A3013 RMK AO1
KF70 161155Z AUTO 00000KT 10SM CLR 09/05 A3014 RMK AO1
KF70 161135Z AUTO 00000KT 10SM CLR 09/05 A3014 RMK AO1
KF70 161115Z AUTO 00000KT 10SM CLR 09/05 A3014 RMK AO1
KF70 161055Z AUTO 00000KT 10SM CLR 09/06 A3014 RMK AO1
KF70 161035Z AUTO 00000KT 10SM CLR 09/06 A3015 RMK AO1
KF70 161015Z AUTO 02003KT 10SM CLR 09/06 A3015 RMK AO1
KF70 160955Z AUTO 00000KT 10SM CLR 10/06 A3015 RMK AO1
KF70 160935Z AUTO 00000KT 10SM CLR 10/06 A3014 RMK AO1
KF70 160915Z AUTO 00000KT 10SM CLR 11/06 A3015 RMK AO1
KF70 160855Z AUTO 00000KT 10SM CLR 11/06 A3015 RMK AO1
KF70 160835Z AUTO 00000KT 10SM CLR 11/06 A3014 RMK AO1
KF70 160815Z AUTO 00000KT 10SM CLR 11/06 A3014 RMK AO1
KF70 160755Z AUTO 07004KT 10SM CLR 11/07 A3014 RMK AO1
KF70 160735Z AUTO 04003KT 10SM CLR 12/07 A3014 RMK AO1
KF70 160715Z AUTO 00000KT 10SM CLR 12/07 A3014 RMK AO1
KF70 160655Z AUTO 00000KT 10SM CLR 12/06 A3013 RMK AO1
KF70 160630Z AUTO 00000KT 10SM CLR 14/06 A3013 RMK AO1
KF70 160615Z AUTO 06004KT 10SM CLR 13/06 A3012 RMK AO1
KF70 160555Z AUTO 00000KT 10SM CLR 14/06 A3013 RMK AO1
KF70 160535Z AUTO 00000KT 10SM CLR 13/06 A3011 RMK AO1
KF70 160515Z AUTO 00000KT 10SM CLR 13/07 A3011 RMK AO1
KF70 160455Z AUTO 04003KT 10SM CLR 13/07 A3010 RMK AO1
KF70 160435Z AUTO 00000KT 10SM CLR 14/06 A3010 RMK AO1
KF70 160415Z AUTO 00000KT 10SM CLR 15/05 A3010 RMK AO1
KF70 160355Z AUTO 00000KT 10SM CLR 15/06 A3009 RMK AO1
KF70 160335Z AUTO 00000KT 10SM CLR 16/05 A3009 RMK AO1
KF70 160315Z AUTO 00000KT 10SM CLR 16/06 A3009 RMK AO1
KF70 160255Z AUTO 11005KT 10SM CLR 16/07 A3009 RMK AO1
KF70 160235Z AUTO 11003KT 10SM CLR 17/06 A3010 RMK AO1
KF70 160215Z AUTO 00000KT 10SM CLR 17/06 A3011 RMK AO1
KF70 160155Z AUTO 13004KT 10SM CLR 17/07 A3010 RMK AO1
KF70 160135Z AUTO 13004KT 10SM CLR 18/07 A3011 RMK AO1
KF70 160115Z AUTO 00000KT 10SM CLR 19/07 A3011 RMK AO1
KF70 160055Z AUTO 00000KT 10SM CLR 19/07 A3010 RMK AO1
KF70 160035Z AUTO 22006KT 10SM CLR 20/07 A3010 RMK AO1
KF70 160015Z AUTO 23006KT 10SM CLR 21/06 A3009 RMK AO1
KF70 152355Z AUTO 23006KT 10SM CLR 21/05 A3008 RMK AO1
KF70 152335Z AUTO 21006KT 10SM CLR 22/04 A3007 RMK AO1
KF70 152315Z AUTO 22008KT 10SM CLR 23/03 A3007 RMK AO1
KF70 152255Z AUTO 21005KT 10SM CLR 24/01 A3007 RMK AO1
KF70 152230Z AUTO 17003KT 10SM CLR 24/00 A3007 RMK AO1
KF70 152215Z AUTO 13004KT 10SM CLR 24/01 A3006 RMK AO1
KF70 152155Z AUTO 00000KT 10SM CLR 24/00 A3007 RMK AO1
KF70 152135Z AUTO 20003KT 10SM CLR 23/00 A3008 RMK AO1
KF70 152115Z AUTO 22003KT 10SM CLR 24/M01 A3008 RMK AO1
KF70 152055Z AUTO 00000KT 10SM CLR 23/M02 A3009 RMK AO1
KF70 152035Z AUTO 00000KT 10SM CLR 23/M00 A3010 RMK AO1
KF70 152015Z AUTO 00000KT 10SM CLR 22/01 A3011 RMK AO1
KF70 151955Z AUTO 24003KT 10SM CLR 21/03 A3011 RMK AO1
KF70 151935Z AUTO 18003KT 10SM CLR 21/03 A3011 RMK AO1
KF70 151915Z AUTO 20004KT 10SM CLR 20/03 A3013 RMK AO1
KF70 151855Z AUTO 00000KT 10SM CLR 20/03 A3014 RMK AO1
KF70 151835Z AUTO 00000KT 10SM CLR 19/02 A3015 RMK AO1
KF70 151815Z AUTO 00000KT 10SM CLR 18/02 A3016 RMK AO1
KF70 151755Z AUTO 01003KT 10SM CLR 16/01 A3016 RMK AO1
KF70 151735Z AUTO 00000KT 10SM CLR 15/02 A3017 RMK AO1
KF70 151715Z AUTO 00000KT 10SM CLR 14/02 A3017 RMK AO1
KF70 151655Z AUTO 00000KT 10SM CLR 11/04 A3016 RMK AO1
KF70 151635Z AUTO 00000KT 10SM CLR 10/04 A3016 RMK AO1
KF70 151615Z AUTO 00000KT 10SM CLR 10/03 A3015 RMK AO1
KF70 151555Z AUTO 04004KT 10SM CLR 08/03 A3015 RMK AO1
KF70 151535Z AUTO 00000KT 10SM CLR 07/03 A3014 RMK AO1
KF70 151515Z AUTO 36003KT 10SM CLR 07/02 A3014 RMK AO1